sensor_id;sensor_type;location;lat;lon;timestamp;P1;durP1;ratioP1;P2;durP2;ratioP2
17592;SDS011;8915;51.760;14.300;2023-04-12T00:00:25;5.33;;;1.60;;
17592;SDS011;8915;51.760;14.300;2023-04-12T00:02:51;3.77;;;1.87;;
17592;SDS011;8915;51.760;14.300;2023-04-12T00:05:19;1.70;;;1.40;;
17592;SDS011;8915;51.760;14.300;2023-04-12T00:07:46;4.93;;;1.50;;
17592;SDS011;8915;51.760;14.300;2023-04-12T00:10:13;1.37;;;1.27;;
17592;SDS011;8915;51.760;14.300;2023-04-12T00:12:40;4.10;;;1.83;;
17592;SDS011;8915;51.760;14.300;2023-04-12T00:15:09;3.13;;;1.77;;
17592;SDS011;8915;51.760;14.300;2023-04-12T00:17:35;4.83;;;1.70;;
17592;SDS011;8915;51.760;14.300;2023-04-12T00:20:02;3.67;;;1.87;;
17592;SDS011;8915;51.760;14.300;2023-04-12T00:22:31;1.23;;;1.13;;
17592;SDS011;8915;51.760;14.300;2023-04-12T00:24:58;1.43;;;1.33;;
17592;SDS011;8915;51.760;14.300;2023-04-12T00:27:24;5.30;;;1.97;;
17592;SDS011;8915;51.760;14.300;2023-04-12T00:29:51;1.67;;;1.30;;
17592;SDS011;8915;51.760;14.300;2023-04-12T00:32:18;4.07;;;1.80;;
17592;SDS011;8915;51.760;14.300;2023-04-12T00:34:44;3.90;;;1.50;;
17592;SDS011;8915;51.760;14.300;2023-04-12T00:37:10;4.30;;;1.60;;
17592;SDS011;8915;51.760;14.300;2023-04-12T00:39:37;3.57;;;2.33;;
17592;SDS011;8915;51.760;14.300;2023-04-12T00:42:04;2.17;;;1.80;;
17592;SDS011;8915;51.760;14.300;2023-04-12T00:44:31;2.07;;;1.80;;
17592;SDS011;8915;51.760;14.300;2023-04-12T00:46:59;2.40;;;1.50;;
17592;SDS011;8915;51.760;14.300;2023-04-12T00:49:27;3.17;;;1.50;;
17592;SDS011;8915;51.760;14.300;2023-04-12T00:51:55;3.97;;;1.90;;
17592;SDS011;8915;51.760;14.300;2023-04-12T00:54:22;2.93;;;1.53;;
17592;SDS011;8915;51.760;14.300;2023-04-12T00:56:50;2.00;;;1.50;;
17592;SDS011;8915;51.760;14.300;2023-04-12T00:59:16;3.23;;;1.87;;
17592;SDS011;8915;51.760;14.300;2023-04-12T01:01:43;3.03;;;1.80;;
17592;SDS011;8915;51.760;14.300;2023-04-12T01:04:10;2.77;;;2.03;;
17592;SDS011;8915;51.760;14.300;2023-04-12T01:06:43;3.43;;;2.00;;
17592;SDS011;8915;51.760;14.300;2023-04-12T01:09:15;3.47;;;1.73;;
17592;SDS011;8915;51.760;14.300;2023-04-12T01:11:47;2.80;;;1.77;;
17592;SDS011;8915;51.760;14.300;2023-04-12T01:14:19;3.37;;;1.80;;
17592;SDS011;8915;51.760;14.300;2023-04-12T01:16:49;4.17;;;1.80;;
17592;SDS011;8915;51.760;14.300;2023-04-12T01:19:28;4.27;;;1.47;;
17592;SDS011;8915;51.760;14.300;2023-04-12T01:22:05;6.63;;;1.73;;
17592;SDS011;8915;51.760;14.300;2023-04-12T01:24:36;3.30;;;2.03;;
17592;SDS011;8915;51.760;14.300;2023-04-12T01:27:09;5.50;;;1.70;;
17592;SDS011;8915;51.760;14.300;2023-04-12T01:29:41;4.20;;;2.27;;
17592;SDS011;8915;51.760;14.300;2023-04-12T01:32:08;2.97;;;1.70;;
17592;SDS011;8915;51.760;14.300;2023-04-12T01:34:37;2.30;;;1.70;;
17592;SDS011;8915;51.760;14.300;2023-04-12T01:37:07;1.97;;;1.63;;
17592;SDS011;8915;51.760;14.300;2023-04-12T01:39:34;1.90;;;1.57;;
17592;SDS011;8915;51.760;14.300;2023-04-12T01:42:01;4.13;;;1.80;;
17592;SDS011;8915;51.760;14.300;2023-04-12T01:44:32;3.43;;;1.73;;
17592;SDS011;8915;51.760;14.300;2023-04-12T01:47:00;6.00;;;1.97;;
17592;SDS011;8915;51.760;14.300;2023-04-12T01:49:28;4.80;;;1.70;;
17592;SDS011;8915;51.760;14.300;2023-04-12T01:52:01;2.13;;;1.83;;
17592;SDS011;8915;51.760;14.300;2023-04-12T01:54:32;3.87;;;1.83;;
17592;SDS011;8915;51.760;14.300;2023-04-12T01:56:59;3.67;;;2.00;;
17592;SDS011;8915;51.760;14.300;2023-04-12T01:59:29;2.20;;;1.63;;
17592;SDS011;8915;51.760;14.300;2023-04-12T02:01:56;3.40;;;1.83;;
17592;SDS011;8915;51.760;14.300;2023-04-12T02:04:24;6.73;;;3.80;;
17592;SDS011;8915;51.760;14.300;2023-04-12T02:06:53;6.43;;;2.87;;
17592;SDS011;8915;51.760;14.300;2023-04-12T02:09:20;2.77;;;1.73;;
17592;SDS011;8915;51.760;14.300;2023-04-12T02:11:47;4.50;;;1.83;;
17592;SDS011;8915;51.760;14.300;2023-04-12T02:14:15;3.57;;;1.77;;
17592;SDS011;8915;51.760;14.300;2023-04-12T02:16:42;2.73;;;1.80;;
17592;SDS011;8915;51.760;14.300;2023-04-12T02:19:11;3.40;;;2.00;;
17592;SDS011;8915;51.760;14.300;2023-04-12T02:21:42;4.43;;;1.80;;
17592;SDS011;8915;51.760;14.300;2023-04-12T02:24:09;4.27;;;1.97;;
17592;SDS011;8915;51.760;14.300;2023-04-12T02:26:35;9.17;;;2.20;;
17592;SDS011;8915;51.760;14.300;2023-04-12T02:29:03;4.63;;;2.33;;
17592;SDS011;8915;51.760;14.300;2023-04-12T02:31:31;7.30;;;2.20;;
17592;SDS011;8915;51.760;14.300;2023-04-12T02:33:58;5.63;;;1.90;;
17592;SDS011;8915;51.760;14.300;2023-04-12T02:36:24;4.60;;;2.43;;
17592;SDS011;8915;51.760;14.300;2023-04-12T02:38:52;2.90;;;1.63;;
17592;SDS011;8915;51.760;14.300;2023-04-12T02:41:19;5.10;;;1.93;;
17592;SDS011;8915;51.760;14.300;2023-04-12T02:43:46;4.13;;;2.60;;
17592;SDS011;8915;51.760;14.300;2023-04-12T02:46:14;4.83;;;2.67;;
17592;SDS011;8915;51.760;14.300;2023-04-12T02:48:46;6.77;;;2.60;;
17592;SDS011;8915;51.760;14.300;2023-04-12T02:51:13;3.40;;;2.03;;
17592;SDS011;8915;51.760;14.300;2023-04-12T02:53:41;4.97;;;2.40;;
17592;SDS011;8915;51.760;14.300;2023-04-12T02:56:16;3.30;;;2.43;;
17592;SDS011;8915;51.760;14.300;2023-04-12T02:58:44;6.47;;;2.60;;
17592;SDS011;8915;51.760;14.300;2023-04-12T03:01:17;3.07;;;2.30;;
17592;SDS011;8915;51.760;14.300;2023-04-12T03:04:12;4.80;;;2.40;;
17592;SDS011;8915;51.760;14.300;2023-04-12T03:06:44;2.57;;;2.07;;
17592;SDS011;8915;51.760;14.300;2023-04-12T03:09:22;4.90;;;2.87;;
17592;SDS011;8915;51.760;14.300;2023-04-12T03:11:52;2.80;;;2.17;;
17592;SDS011;8915;51.760;14.300;2023-04-12T03:14:18;6.53;;;2.30;;
17592;SDS011;8915;51.760;14.300;2023-04-12T03:16:46;3.43;;;2.10;;
17592;SDS011;8915;51.760;14.300;2023-04-12T03:19:15;3.60;;;1.80;;
17592;SDS011;8915;51.760;14.300;2023-04-12T03:21:49;4.20;;;2.60;;
17592;SDS011;8915;51.760;14.300;2023-04-12T03:24:15;4.20;;;2.20;;
17592;SDS011;8915;51.760;14.300;2023-04-12T03:26:42;2.87;;;2.30;;
17592;SDS011;8915;51.760;14.300;2023-04-12T03:29:14;4.70;;;2.10;;
17592;SDS011;8915;51.760;14.300;2023-04-12T03:31:42;5.33;;;2.37;;
17592;SDS011;8915;51.760;14.300;2023-04-12T03:34:12;4.27;;;2.57;;
17592;SDS011;8915;51.760;14.300;2023-04-12T03:36:42;5.87;;;2.80;;
17592;SDS011;8915;51.760;14.300;2023-04-12T03:39:19;7.20;;;2.70;;
17592;SDS011;8915;51.760;14.300;2023-04-12T03:41:52;3.70;;;2.67;;
17592;SDS011;8915;51.760;14.300;2023-04-12T03:44:26;6.63;;;2.13;;
17592;SDS011;8915;51.760;14.300;2023-04-12T03:46:54;3.53;;;2.20;;
17592;SDS011;8915;51.760;14.300;2023-04-12T03:49:22;3.00;;;2.43;;
17592;SDS011;8915;51.760;14.300;2023-04-12T03:51:50;3.70;;;2.50;;
17592;SDS011;8915;51.760;14.300;2023-04-12T03:54:19;3.77;;;2.13;;
17592;SDS011;8915;51.760;14.300;2023-04-12T03:56:57;5.03;;;2.47;;
17592;SDS011;8915;51.760;14.300;2023-04-12T03:59:31;5.13;;;2.27;;
17592;SDS011;8915;51.760;14.300;2023-04-12T04:01:59;3.57;;;2.73;;
17592;SDS011;8915;51.760;14.300;2023-04-12T04:04:27;3.50;;;2.37;;
17592;SDS011;8915;51.760;14.300;2023-04-12T04:06:56;3.60;;;2.47;;
17592;SDS011;8915;51.760;14.300;2023-04-12T04:09:25;3.67;;;2.73;;
17592;SDS011;8915;51.760;14.300;2023-04-12T04:11:51;3.23;;;2.40;;
17592;SDS011;8915;51.760;14.300;2023-04-12T04:14:19;5.80;;;2.73;;
17592;SDS011;8915;51.760;14.300;2023-04-12T04:16:47;3.47;;;2.80;;
17592;SDS011;8915;51.760;14.300;2023-04-12T04:19:15;5.00;;;2.83;;
17592;SDS011;8915;51.760;14.300;2023-04-12T04:21:44;4.20;;;2.87;;
17592;SDS011;8915;51.760;14.300;2023-04-12T04:24:10;6.40;;;3.10;;
17592;SDS011;8915;51.760;14.300;2023-04-12T04:26:43;5.60;;;2.93;;
17592;SDS011;8915;51.760;14.300;2023-04-12T04:29:21;3.87;;;3.20;;
17592;SDS011;8915;51.760;14.300;2023-04-12T04:31:52;5.83;;;2.80;;
17592;SDS011;8915;51.760;14.300;2023-04-12T04:34:20;4.43;;;3.20;;
17592;SDS011;8915;51.760;14.300;2023-04-12T04:36:48;3.83;;;2.97;;
17592;SDS011;8915;51.760;14.300;2023-04-12T04:39:21;5.07;;;2.93;;
17592;SDS011;8915;51.760;14.300;2023-04-12T04:41:48;4.97;;;3.20;;
17592;SDS011;8915;51.760;14.300;2023-04-12T04:44:39;6.47;;;2.60;;
17592;SDS011;8915;51.760;14.300;2023-04-12T04:47:09;4.77;;;3.10;;
17592;SDS011;8915;51.760;14.300;2023-04-12T04:49:36;7.63;;;3.10;;
17592;SDS011;8915;51.760;14.300;2023-04-12T04:52:11;5.53;;;3.23;;
17592;SDS011;8915;51.760;14.300;2023-04-12T04:54:37;6.67;;;3.40;;
17592;SDS011;8915;51.760;14.300;2023-04-12T04:57:04;7.67;;;3.47;;
17592;SDS011;8915;51.760;14.300;2023-04-12T04:59:33;7.53;;;4.23;;
17592;SDS011;8915;51.760;14.300;2023-04-12T05:02:12;6.67;;;3.90;;
17592;SDS011;8915;51.760;14.300;2023-04-12T05:04:38;8.63;;;4.90;;
17592;SDS011;8915;51.760;14.300;2023-04-12T05:07:11;15.30;;;7.37;;
17592;SDS011;8915;51.760;14.300;2023-04-12T05:09:41;15.20;;;7.67;;
17592;SDS011;8915;51.760;14.300;2023-04-12T05:12:08;11.90;;;6.63;;
17592;SDS011;8915;51.760;14.300;2023-04-12T05:14:40;12.60;;;6.70;;
17592;SDS011;8915;51.760;14.300;2023-04-12T05:17:07;9.57;;;6.20;;
17592;SDS011;8915;51.760;14.300;2023-04-12T05:19:34;13.73;;;6.60;;
17592;SDS011;8915;51.760;14.300;2023-04-12T05:22:06;12.63;;;5.93;;
17592;SDS011;8915;51.760;14.300;2023-04-12T05:24:32;17.57;;;7.13;;
17592;SDS011;8915;51.760;14.300;2023-04-12T05:26:58;16.90;;;6.23;;
17592;SDS011;8915;51.760;14.300;2023-04-12T05:29:25;13.63;;;5.80;;
17592;SDS011;8915;51.760;14.300;2023-04-12T05:31:51;11.10;;;6.73;;
17592;SDS011;8915;51.760;14.300;2023-04-12T05:34:20;13.20;;;6.57;;
17592;SDS011;8915;51.760;14.300;2023-04-12T05:36:53;11.13;;;6.20;;
17592;SDS011;8915;51.760;14.300;2023-04-12T05:39:20;21.60;;;11.10;;
17592;SDS011;8915;51.760;14.300;2023-04-12T05:41:50;32.17;;;17.13;;
17592;SDS011;8915;51.760;14.300;2023-04-12T05:44:16;21.43;;;14.60;;
17592;SDS011;8915;51.760;14.300;2023-04-12T05:46:45;13.77;;;9.30;;
17592;SDS011;8915;51.760;14.300;2023-04-12T05:49:11;18.03;;;8.53;;
17592;SDS011;8915;51.760;14.300;2023-04-12T05:51:38;16.13;;;7.10;;
17592;SDS011;8915;51.760;14.300;2023-04-12T05:54:05;11.10;;;6.13;;
17592;SDS011;8915;51.760;14.300;2023-04-12T05:56:33;9.07;;;4.87;;
17592;SDS011;8915;51.760;14.300;2023-04-12T05:59:01;15.00;;;5.93;;
17592;SDS011;8915;51.760;14.300;2023-04-12T06:01:29;9.90;;;6.90;;
17592;SDS011;8915;51.760;14.300;2023-04-12T06:03:58;11.67;;;6.27;;
17592;SDS011;8915;51.760;14.300;2023-04-12T06:06:31;15.53;;;8.27;;
17592;SDS011;8915;51.760;14.300;2023-04-12T06:08:58;11.50;;;6.57;;
17592;SDS011;8915;51.760;14.300;2023-04-12T06:11:28;14.27;;;5.67;;
17592;SDS011;8915;51.760;14.300;2023-04-12T06:13:56;14.70;;;6.20;;
17592;SDS011;8915;51.760;14.300;2023-04-12T06:16:23;12.17;;;6.83;;
17592;SDS011;8915;51.760;14.300;2023-04-12T06:18:50;10.80;;;6.33;;
17592;SDS011;8915;51.760;14.300;2023-04-12T06:21:17;16.00;;;9.57;;
17592;SDS011;8915;51.760;14.300;2023-04-12T06:23:45;13.50;;;7.57;;
17592;SDS011;8915;51.760;14.300;2023-04-12T06:26:11;15.03;;;6.77;;
17592;SDS011;8915;51.760;14.300;2023-04-12T06:28:39;15.43;;;7.87;;
17592;SDS011;8915;51.760;14.300;2023-04-12T06:31:05;11.87;;;6.43;;
17592;SDS011;8915;51.760;14.300;2023-04-12T06:33:35;16.17;;;6.60;;
17592;SDS011;8915;51.760;14.300;2023-04-12T06:36:06;17.63;;;6.80;;
17592;SDS011;8915;51.760;14.300;2023-04-12T06:38:35;15.83;;;6.63;;
17592;SDS011;8915;51.760;14.300;2023-04-12T06:41:01;11.87;;;6.77;;
17592;SDS011;8915;51.760;14.300;2023-04-12T06:43:32;13.20;;;6.77;;
17592;SDS011;8915;51.760;14.300;2023-04-12T06:46:01;10.47;;;6.90;;
17592;SDS011;8915;51.760;14.300;2023-04-12T06:48:30;15.97;;;7.50;;
17592;SDS011;8915;51.760;14.300;2023-04-12T06:50:56;14.93;;;7.57;;
17592;SDS011;8915;51.760;14.300;2023-04-12T06:53:22;14.27;;;6.87;;
17592;SDS011;8915;51.760;14.300;2023-04-12T06:55:48;16.40;;;7.37;;
17592;SDS011;8915;51.760;14.300;2023-04-12T06:58:15;15.67;;;7.33;;
17592;SDS011;8915;51.760;14.300;2023-04-12T07:00:41;14.20;;;6.77;;
17592;SDS011;8915;51.760;14.300;2023-04-12T07:03:09;10.23;;;6.27;;
17592;SDS011;8915;51.760;14.300;2023-04-12T07:05:37;17.03;;;6.20;;
17592;SDS011;8915;51.760;14.300;2023-04-12T07:08:04;14.20;;;6.20;;
17592;SDS011;8915;51.760;14.300;2023-04-12T07:10:30;9.87;;;5.73;;
17592;SDS011;8915;51.760;14.300;2023-04-12T07:12:56;12.03;;;5.80;;
17592;SDS011;8915;51.760;14.300;2023-04-12T07:15:30;11.53;;;6.00;;
17592;SDS011;8915;51.760;14.300;2023-04-12T07:17:57;15.43;;;5.87;;
17592;SDS011;8915;51.760;14.300;2023-04-12T07:20:24;14.67;;;5.53;;
17592;SDS011;8915;51.760;14.300;2023-04-12T07:22:51;20.83;;;6.33;;
17592;SDS011;8915;51.760;14.300;2023-04-12T07:25:17;20.50;;;6.17;;
17592;SDS011;8915;51.760;14.300;2023-04-12T07:27:43;12.77;;;5.50;;
17592;SDS011;8915;51.760;14.300;2023-04-12T07:30:10;10.63;;;6.07;;
17592;SDS011;8915;51.760;14.300;2023-04-12T07:32:36;12.27;;;4.67;;
17592;SDS011;8915;51.760;14.300;2023-04-12T07:35:05;10.73;;;5.33;;
17592;SDS011;8915;51.760;14.300;2023-04-12T07:37:34;14.60;;;5.40;;
17592;SDS011;8915;51.760;14.300;2023-04-12T07:40:01;13.53;;;5.23;;
17592;SDS011;8915;51.760;14.300;2023-04-12T07:42:27;13.87;;;5.40;;
17592;SDS011;8915;51.760;14.300;2023-04-12T07:44:53;9.70;;;5.07;;
17592;SDS011;8915;51.760;14.300;2023-04-12T07:47:19;13.13;;;5.57;;
17592;SDS011;8915;51.760;14.300;2023-04-12T07:49:45;13.13;;;5.20;;
17592;SDS011;8915;51.760;14.300;2023-04-12T07:52:12;10.10;;;4.83;;
17592;SDS011;8915;51.760;14.300;2023-04-12T07:54:39;9.50;;;4.50;;
17592;SDS011;8915;51.760;14.300;2023-04-12T07:57:08;9.60;;;4.10;;
17592;SDS011;8915;51.760;14.300;2023-04-12T07:59:34;9.63;;;3.93;;
17592;SDS011;8915;51.760;14.300;2023-04-12T08:02:06;11.17;;;4.70;;
17592;SDS011;8915;51.760;14.300;2023-04-12T08:04:33;4.93;;;3.37;;
17592;SDS011;8915;51.760;14.300;2023-04-12T08:06:59;8.63;;;3.37;;
17592;SDS011;8915;51.760;14.300;2023-04-12T08:09:28;5.00;;;3.07;;
17592;SDS011;8915;51.760;14.300;2023-04-12T08:11:56;3.83;;;2.50;;
17592;SDS011;8915;51.760;14.300;2023-04-12T08:14:22;2.40;;;1.70;;
17592;SDS011;8915;51.760;14.300;2023-04-12T08:16:49;6.27;;;3.13;;
17592;SDS011;8915;51.760;14.300;2023-04-12T08:19:16;3.13;;;1.70;;
17592;SDS011;8915;51.760;14.300;2023-04-12T08:21:44;4.10;;;1.37;;
17592;SDS011;8915;51.760;14.300;2023-04-12T08:24:10;2.47;;;1.03;;
17592;SDS011;8915;51.760;14.300;2023-04-12T08:26:38;1.13;;;0.90;;
17592;SDS011;8915;51.760;14.300;2023-04-12T08:29:05;1.50;;;1.10;;
17592;SDS011;8915;51.760;14.300;2023-04-12T08:31:31;2.20;;;1.00;;
17592;SDS011;8915;51.760;14.300;2023-04-12T08:33:58;1.83;;;0.80;;
17592;SDS011;8915;51.760;14.300;2023-04-12T08:36:24;1.70;;;0.77;;
17592;SDS011;8915;51.760;14.300;2023-04-12T08:38:51;4.63;;;1.10;;
17592;SDS011;8915;51.760;14.300;2023-04-12T08:41:19;2.20;;;0.87;;
17592;SDS011;8915;51.760;14.300;2023-04-12T08:43:47;3.27;;;0.80;;
17592;SDS011;8915;51.760;14.300;2023-04-12T08:46:15;1.83;;;0.97;;
17592;SDS011;8915;51.760;14.300;2023-04-12T08:48:42;1.27;;;0.87;;
17592;SDS011;8915;51.760;14.300;2023-04-12T08:51:10;0.87;;;0.77;;
17592;SDS011;8915;51.760;14.300;2023-04-12T08:53:38;1.20;;;1.10;;
17592;SDS011;8915;51.760;14.300;2023-04-12T08:56:05;2.73;;;1.07;;
17592;SDS011;8915;51.760;14.300;2023-04-12T08:58:32;1.27;;;0.83;;
17592;SDS011;8915;51.760;14.300;2023-04-12T09:00:58;2.33;;;0.70;;
17592;SDS011;8915;51.760;14.300;2023-04-12T09:03:31;2.20;;;0.90;;
17592;SDS011;8915;51.760;14.300;2023-04-12T09:05:59;2.30;;;0.80;;
17592;SDS011;8915;51.760;14.300;2023-04-12T09:08:32;2.10;;;1.03;;
17592;SDS011;8915;51.760;14.300;2023-04-12T09:10:58;1.70;;;0.97;;
17592;SDS011;8915;51.760;14.300;2023-04-12T09:13:31;1.87;;;1.00;;
17592;SDS011;8915;51.760;14.300;2023-04-12T09:15:58;2.63;;;0.87;;
17592;SDS011;8915;51.760;14.300;2023-04-12T09:18:24;1.23;;;0.80;;
17592;SDS011;8915;51.760;14.300;2023-04-12T09:20:53;3.40;;;1.20;;
17592;SDS011;8915;51.760;14.300;2023-04-12T09:23:30;1.63;;;1.07;;
17592;SDS011;8915;51.760;14.300;2023-04-12T09:25:57;2.73;;;0.80;;
17592;SDS011;8915;51.760;14.300;2023-04-12T09:28:23;3.00;;;1.13;;
17592;SDS011;8915;51.760;14.300;2023-04-12T09:30:50;1.57;;;1.13;;
17592;SDS011;8915;51.760;14.300;2023-04-12T09:33:17;2.07;;;0.93;;
17592;SDS011;8915;51.760;14.300;2023-04-12T09:35:44;1.70;;;0.70;;
17592;SDS011;8915;51.760;14.300;2023-04-12T09:38:12;2.20;;;0.80;;
17592;SDS011;8915;51.760;14.300;2023-04-12T09:40:38;1.93;;;0.83;;
17592;SDS011;8915;51.760;14.300;2023-04-12T09:43:05;1.93;;;0.90;;
17592;SDS011;8915;51.760;14.300;2023-04-12T09:45:32;3.90;;;0.90;;
17592;SDS011;8915;51.760;14.300;2023-04-12T09:47:59;2.03;;;1.00;;
17592;SDS011;8915;51.760;14.300;2023-04-12T09:50:30;3.97;;;1.10;;
17592;SDS011;8915;51.760;14.300;2023-04-12T09:52:58;1.93;;;1.13;;
17592;SDS011;8915;51.760;14.300;2023-04-12T09:55:28;2.67;;;1.07;;
17592;SDS011;8915;51.760;14.300;2023-04-12T09:57:55;2.93;;;0.93;;
17592;SDS011;8915;51.760;14.300;2023-04-12T10:00:23;1.53;;;0.60;;
17592;SDS011;8915;51.760;14.300;2023-04-12T10:02:51;1.53;;;0.70;;
17592;SDS011;8915;51.760;14.300;2023-04-12T10:05:18;2.80;;;1.10;;
17592;SDS011;8915;51.760;14.300;2023-04-12T10:07:45;3.13;;;0.90;;
17592;SDS011;8915;51.760;14.300;2023-04-12T10:10:12;2.03;;;0.90;;
17592;SDS011;8915;51.760;14.300;2023-04-12T10:12:41;2.10;;;0.90;;
17592;SDS011;8915;51.760;14.300;2023-04-12T10:15:13;1.83;;;0.93;;
17592;SDS011;8915;51.760;14.300;2023-04-12T10:17:41;2.53;;;1.03;;
17592;SDS011;8915;51.760;14.300;2023-04-12T10:20:09;4.67;;;1.20;;
17592;SDS011;8915;51.760;14.300;2023-04-12T10:22:37;3.83;;;1.20;;
17592;SDS011;8915;51.760;14.300;2023-04-12T10:25:04;2.00;;;1.10;;
17592;SDS011;8915;51.760;14.300;2023-04-12T10:27:33;1.90;;;1.00;;
17592;SDS011;8915;51.760;14.300;2023-04-12T10:32:42;4.77;;;1.07;;
17592;SDS011;8915;51.760;14.300;2023-04-12T10:35:08;2.07;;;1.10;;
17592;SDS011;8915;51.760;14.300;2023-04-12T10:40:20;1.63;;;1.00;;
17592;SDS011;8915;51.760;14.300;2023-04-12T10:42:47;1.00;;;0.80;;
17592;SDS011;8915;51.760;14.300;2023-04-12T10:48:09;1.60;;;1.13;;
17592;SDS011;8915;51.760;14.300;2023-04-12T10:53:35;1.47;;;0.70;;
17592;SDS011;8915;51.760;14.300;2023-04-12T10:56:09;1.30;;;1.20;;
17592;SDS011;8915;51.760;14.300;2023-04-12T10:58:56;2.03;;;1.20;;
17592;SDS011;8915;51.760;14.300;2023-04-12T11:01:24;3.73;;;1.37;;
17592;SDS011;8915;51.760;14.300;2023-04-12T11:04:08;3.60;;;1.00;;
17592;SDS011;8915;51.760;14.300;2023-04-12T11:06:41;4.43;;;1.33;;
17592;SDS011;8915;51.760;14.300;2023-04-12T11:09:26;1.57;;;1.00;;
17592;SDS011;8915;51.760;14.300;2023-04-12T11:14:24;2.73;;;1.20;;
17592;SDS011;8915;51.760;14.300;2023-04-12T11:19:33;1.77;;;1.00;;
17592;SDS011;8915;51.760;14.300;2023-04-12T11:21:59;3.20;;;1.07;;
17592;SDS011;8915;51.760;14.300;2023-04-12T11:24:30;1.63;;;1.10;;
17592;SDS011;8915;51.760;14.300;2023-04-12T11:26:56;2.17;;;0.90;;
17592;SDS011;8915;51.760;14.300;2023-04-12T11:29:23;1.00;;;0.90;;
17592;SDS011;8915;51.760;14.300;2023-04-12T11:31:50;3.10;;;1.00;;
17592;SDS011;8915;51.760;14.300;2023-04-12T11:34:16;4.70;;;1.30;;
17592;SDS011;8915;51.760;14.300;2023-04-12T11:36:44;1.90;;;1.40;;
17592;SDS011;8915;51.760;14.300;2023-04-12T11:39:10;8.83;;;1.23;;
17592;SDS011;8915;51.760;14.300;2023-04-12T11:41:42;3.80;;;1.00;;
17592;SDS011;8915;51.760;14.300;2023-04-12T11:44:08;2.43;;;1.40;;
17592;SDS011;8915;51.760;14.300;2023-04-12T11:46:34;2.50;;;1.00;;
17592;SDS011;8915;51.760;14.300;2023-04-12T11:49:01;3.23;;;1.13;;
17592;SDS011;8915;51.760;14.300;2023-04-12T11:51:32;2.30;;;1.13;;
17592;SDS011;8915;51.760;14.300;2023-04-12T11:54:04;3.10;;;1.23;;
17592;SDS011;8915;51.760;14.300;2023-04-12T11:56:30;4.50;;;1.10;;
17592;SDS011;8915;51.760;14.300;2023-04-12T11:58:56;1.87;;;0.93;;
17592;SDS011;8915;51.760;14.300;2023-04-12T12:01:23;1.93;;;1.03;;
17592;SDS011;8915;51.760;14.300;2023-04-12T12:03:49;1.67;;;0.67;;
17592;SDS011;8915;51.760;14.300;2023-04-12T12:06:15;2.43;;;0.80;;
17592;SDS011;8915;51.760;14.300;2023-04-12T12:08:42;1.77;;;0.80;;
17592;SDS011;8915;51.760;14.300;2023-04-12T12:11:13;2.10;;;1.10;;
17592;SDS011;8915;51.760;14.300;2023-04-12T12:13:43;2.47;;;0.80;;
17592;SDS011;8915;51.760;14.300;2023-04-12T12:16:10;1.67;;;0.70;;
17592;SDS011;8915;51.760;14.300;2023-04-12T12:18:38;1.20;;;0.80;;
17592;SDS011;8915;51.760;14.300;2023-04-12T12:21:07;2.87;;;0.77;;
17592;SDS011;8915;51.760;14.300;2023-04-12T12:23:33;2.93;;;0.97;;
17592;SDS011;8915;51.760;14.300;2023-04-12T12:25:59;2.47;;;0.80;;
17592;SDS011;8915;51.760;14.300;2023-04-12T12:28:28;0.90;;;0.83;;
17592;SDS011;8915;51.760;14.300;2023-04-12T12:30:55;4.53;;;0.80;;
17592;SDS011;8915;51.760;14.300;2023-04-12T12:33:22;3.10;;;0.77;;
17592;SDS011;8915;51.760;14.300;2023-04-12T12:35:54;2.23;;;1.00;;
17592;SDS011;8915;51.760;14.300;2023-04-12T12:38:20;1.37;;;0.70;;
17592;SDS011;8915;51.760;14.300;2023-04-12T12:40:47;1.60;;;0.90;;
17592;SDS011;8915;51.760;14.300;2023-04-12T12:43:16;3.30;;;0.93;;
17592;SDS011;8915;51.760;14.300;2023-04-12T12:45:45;1.07;;;0.73;;
17592;SDS011;8915;51.760;14.300;2023-04-12T12:48:12;1.60;;;0.90;;
17592;SDS011;8915;51.760;14.300;2023-04-12T12:50:38;2.53;;;1.03;;
17592;SDS011;8915;51.760;14.300;2023-04-12T12:53:05;1.47;;;0.80;;
17592;SDS011;8915;51.760;14.300;2023-04-12T12:55:32;2.73;;;1.10;;
17592;SDS011;8915;51.760;14.300;2023-04-12T12:58:00;2.00;;;0.83;;
17592;SDS011;8915;51.760;14.300;2023-04-12T13:00:52;2.13;;;0.90;;
17592;SDS011;8915;51.760;14.300;2023-04-12T13:03:19;1.07;;;0.83;;
17592;SDS011;8915;51.760;14.300;2023-04-12T13:05:45;3.63;;;0.93;;
17592;SDS011;8915;51.760;14.300;2023-04-12T13:08:11;1.40;;;1.03;;
17592;SDS011;8915;51.760;14.300;2023-04-12T13:10:37;2.87;;;0.90;;
17592;SDS011;8915;51.760;14.300;2023-04-12T13:13:04;1.83;;;0.97;;
17592;SDS011;8915;51.760;14.300;2023-04-12T13:15:30;1.80;;;0.90;;
17592;SDS011;8915;51.760;14.300;2023-04-12T13:17:57;1.00;;;0.97;;
17592;SDS011;8915;51.760;14.300;2023-04-12T13:20:24;0.90;;;0.80;;
17592;SDS011;8915;51.760;14.300;2023-04-12T13:22:51;2.50;;;1.00;;
17592;SDS011;8915;51.760;14.300;2023-04-12T13:25:17;2.57;;;1.10;;
17592;SDS011;8915;51.760;14.300;2023-04-12T13:27:44;1.20;;;0.97;;
17592;SDS011;8915;51.760;14.300;2023-04-12T13:30:12;2.33;;;1.30;;
17592;SDS011;8915;51.760;14.300;2023-04-12T13:32:38;8.50;;;4.57;;
17592;SDS011;8915;51.760;14.300;2023-04-12T13:35:06;9.07;;;3.50;;
17592;SDS011;8915;51.760;14.300;2023-04-12T13:37:33;10.27;;;4.47;;
17592;SDS011;8915;51.760;14.300;2023-04-12T13:39:59;6.50;;;4.23;;
17592;SDS011;8915;51.760;14.300;2023-04-12T13:42:27;4.43;;;2.20;;
17592;SDS011;8915;51.760;14.300;2023-04-12T13:44:54;2.80;;;0.93;;
17592;SDS011;8915;51.760;14.300;2023-04-12T13:47:20;2.87;;;0.97;;
17592;SDS011;8915;51.760;14.300;2023-04-12T13:49:48;2.60;;;1.03;;
17592;SDS011;8915;51.760;14.300;2023-04-12T13:52:15;2.00;;;1.00;;
17592;SDS011;8915;51.760;14.300;2023-04-12T13:54:42;1.90;;;1.10;;
17592;SDS011;8915;51.760;14.300;2023-04-12T13:57:08;2.47;;;1.13;;
17592;SDS011;8915;51.760;14.300;2023-04-12T13:59:34;1.17;;;0.90;;
17592;SDS011;8915;51.760;14.300;2023-04-12T14:02:05;1.97;;;1.20;;
17592;SDS011;8915;51.760;14.300;2023-04-12T14:04:32;2.63;;;1.23;;
17592;SDS011;8915;51.760;14.300;2023-04-12T14:06:58;3.07;;;1.10;;
17592;SDS011;8915;51.760;14.300;2023-04-12T14:09:27;1.90;;;1.20;;
17592;SDS011;8915;51.760;14.300;2023-04-12T14:11:53;1.50;;;1.00;;
17592;SDS011;8915;51.760;14.300;2023-04-12T14:14:20;2.13;;;1.07;;
17592;SDS011;8915;51.760;14.300;2023-04-12T14:16:47;2.33;;;1.20;;
17592;SDS011;8915;51.760;14.300;2023-04-12T14:19:13;1.90;;;1.10;;
17592;SDS011;8915;51.760;14.300;2023-04-12T14:21:45;2.67;;;1.27;;
17592;SDS011;8915;51.760;14.300;2023-04-12T14:24:12;1.50;;;1.27;;
17592;SDS011;8915;51.760;14.300;2023-04-12T14:26:39;3.10;;;1.60;;
17592;SDS011;8915;51.760;14.300;2023-04-12T14:29:06;3.20;;;1.60;;
17592;SDS011;8915;51.760;14.300;2023-04-12T14:31:32;1.67;;;1.27;;
17592;SDS011;8915;51.760;14.300;2023-04-12T14:34:00;2.47;;;1.27;;
17592;SDS011;8915;51.760;14.300;2023-04-12T14:36:51;2.07;;;1.07;;
17592;SDS011;8915;51.760;14.300;2023-04-12T14:39:17;3.63;;;1.50;;
17592;SDS011;8915;51.760;14.300;2023-04-12T14:41:47;5.30;;;1.50;;
17592;SDS011;8915;51.760;14.300;2023-04-12T14:44:13;2.43;;;1.30;;
17592;SDS011;8915;51.760;14.300;2023-04-12T14:46:39;2.03;;;1.00;;
17592;SDS011;8915;51.760;14.300;2023-04-12T14:49:06;5.93;;;1.37;;
17592;SDS011;8915;51.760;14.300;2023-04-12T14:51:32;2.70;;;1.13;;
17592;SDS011;8915;51.760;14.300;2023-04-12T14:53:58;2.23;;;1.37;;
17592;SDS011;8915;51.760;14.300;2023-04-12T14:56:25;1.87;;;1.10;;
17592;SDS011;8915;51.760;14.300;2023-04-12T14:58:56;3.10;;;1.67;;
17592;SDS011;8915;51.760;14.300;2023-04-12T15:01:22;3.47;;;1.30;;
17592;SDS011;8915;51.760;14.300;2023-04-12T15:03:49;1.93;;;1.20;;
17592;SDS011;8915;51.760;14.300;2023-04-12T15:06:15;1.73;;;1.10;;
17592;SDS011;8915;51.760;14.300;2023-04-12T15:08:41;3.73;;;1.17;;